sensor_id;sensor_type;location;lat;lon;timestamp;P1;durP1;ratioP1;P2;durP2;ratioP2
72524;SDS011;60547;48.502;8.996;2022-07-11T00:02:04;4.47;;;1.65;;
72524;SDS011;60547;48.502;8.996;2022-07-11T00:04:31;3.30;;;1.60;;
72524;SDS011;60547;48.502;8.996;2022-07-11T00:06:57;3.75;;;2.00;;
72524;SDS011;60547;48.502;8.996;2022-07-11T00:09:24;3.35;;;1.75;;
72524;SDS011;60547;48.502;8.996;2022-07-11T00:11:50;4.32;;;1.92;;
72524;SDS011;60547;48.502;8.996;2022-07-11T00:14:15;4.88;;;1.92;;
72524;SDS011;60547;48.502;8.996;2022-07-11T00:16:41;2.88;;;1.40;;
72524;SDS011;60547;48.502;8.996;2022-07-11T00:19:07;3.72;;;2.03;;
72524;SDS011;60547;48.502;8.996;2022-07-11T00:21:33;4.78;;;1.70;;
72524;SDS011;60547;48.502;8.996;2022-07-11T00:24:00;3.58;;;1.63;;
72524;SDS011;60547;48.502;8.996;2022-07-11T00:26:25;2.92;;;1.80;;
72524;SDS011;60547;48.502;8.996;2022-07-11T00:28:51;3.40;;;1.80;;
72524;SDS011;60547;48.502;8.996;2022-07-11T00:31:16;3.22;;;1.80;;
72524;SDS011;60547;48.502;8.996;2022-07-11T00:33:43;3.30;;;1.70;;
72524;SDS011;60547;48.502;8.996;2022-07-11T00:36:09;3.55;;;1.73;;
72524;SDS011;60547;48.502;8.996;2022-07-11T00:38:34;3.65;;;1.58;;
72524;SDS011;60547;48.502;8.996;2022-07-11T00:40:59;6.00;;;1.90;;
72524;SDS011;60547;48.502;8.996;2022-07-11T00:43:32;3.58;;;1.50;;
72524;SDS011;60547;48.502;8.996;2022-07-11T00:45:59;4.43;;;2.08;;
72524;SDS011;60547;48.502;8.996;2022-07-11T00:48:25;4.85;;;1.80;;
72524;SDS011;60547;48.502;8.996;2022-07-11T00:50:51;2.90;;;1.88;;
72524;SDS011;60547;48.502;8.996;2022-07-11T00:53:17;4.93;;;2.10;;
72524;SDS011;60547;48.502;8.996;2022-07-11T00:55:44;4.20;;;1.95;;
72524;SDS011;60547;48.502;8.996;2022-07-11T00:58:11;3.22;;;1.92;;
72524;SDS011;60547;48.502;8.996;2022-07-11T01:00:36;3.47;;;1.80;;
72524;SDS011;60547;48.502;8.996;2022-07-11T01:03:02;3.03;;;1.60;;
72524;SDS011;60547;48.502;8.996;2022-07-11T01:05:27;4.50;;;1.95;;
72524;SDS011;60547;48.502;8.996;2022-07-11T01:07:53;4.40;;;1.73;;
72524;SDS011;60547;48.502;8.996;2022-07-11T01:10:19;3.17;;;1.88;;
72524;SDS011;60547;48.502;8.996;2022-07-11T01:12:45;3.13;;;1.90;;
72524;SDS011;60547;48.502;8.996;2022-07-11T01:15:13;4.63;;;1.85;;
72524;SDS011;60547;48.502;8.996;2022-07-11T01:17:39;5.25;;;2.05;;
72524;SDS011;60547;48.502;8.996;2022-07-11T01:20:05;3.88;;;1.83;;
72524;SDS011;60547;48.502;8.996;2022-07-11T01:22:31;3.40;;;2.05;;
72524;SDS011;60547;48.502;8.996;2022-07-11T01:25:02;4.38;;;2.13;;
72524;SDS011;60547;48.502;8.996;2022-07-11T01:27:28;3.25;;;1.70;;
72524;SDS011;60547;48.502;8.996;2022-07-11T01:29:54;4.10;;;2.03;;
72524;SDS011;60547;48.502;8.996;2022-07-11T01:32:20;5.68;;;2.30;;
72524;SDS011;60547;48.502;8.996;2022-07-11T01:34:46;5.35;;;2.17;;
72524;SDS011;60547;48.502;8.996;2022-07-11T01:37:12;3.95;;;1.98;;
72524;SDS011;60547;48.502;8.996;2022-07-11T01:39:38;3.40;;;1.80;;
72524;SDS011;60547;48.502;8.996;2022-07-11T01:42:03;3.65;;;1.95;;
72524;SDS011;60547;48.502;8.996;2022-07-11T01:44:29;3.30;;;2.00;;
72524;SDS011;60547;48.502;8.996;2022-07-11T01:46:55;3.10;;;1.58;;
72524;SDS011;60547;48.502;8.996;2022-07-11T01:49:20;4.18;;;1.90;;
72524;SDS011;60547;48.502;8.996;2022-07-11T01:51:45;5.57;;;2.00;;
72524;SDS011;60547;48.502;8.996;2022-07-11T01:54:12;4.43;;;2.00;;
72524;SDS011;60547;48.502;8.996;2022-07-11T01:56:37;3.33;;;1.55;;
72524;SDS011;60547;48.502;8.996;2022-07-11T01:59:02;4.78;;;2.40;;
72524;SDS011;60547;48.502;8.996;2022-07-11T02:01:28;4.13;;;1.70;;
72524;SDS011;60547;48.502;8.996;2022-07-11T02:03:54;3.28;;;1.73;;
72524;SDS011;60547;48.502;8.996;2022-07-11T02:06:23;5.35;;;2.20;;
72524;SDS011;60547;48.502;8.996;2022-07-11T02:08:48;4.40;;;1.95;;
72524;SDS011;60547;48.502;8.996;2022-07-11T02:11:13;3.30;;;1.80;;
72524;SDS011;60547;48.502;8.996;2022-07-11T02:13:39;3.38;;;2.00;;
72524;SDS011;60547;48.502;8.996;2022-07-11T02:16:04;3.45;;;2.08;;
72524;SDS011;60547;48.502;8.996;2022-07-11T02:18:30;5.25;;;1.80;;
72524;SDS011;60547;48.502;8.996;2022-07-11T02:20:58;4.40;;;2.30;;
72524;SDS011;60547;48.502;8.996;2022-07-11T02:23:23;3.40;;;1.88;;
72524;SDS011;60547;48.502;8.996;2022-07-11T02:25:49;4.45;;;1.90;;
72524;SDS011;60547;48.502;8.996;2022-07-11T02:28:14;2.70;;;1.67;;
72524;SDS011;60547;48.502;8.996;2022-07-11T02:30:41;4.20;;;1.80;;
72524;SDS011;60547;48.502;8.996;2022-07-11T02:33:08;3.38;;;1.80;;
72524;SDS011;60547;48.502;8.996;2022-07-11T02:35:36;5.22;;;2.10;;
72524;SDS011;60547;48.502;8.996;2022-07-11T02:38:02;3.83;;;2.00;;
72524;SDS011;60547;48.502;8.996;2022-07-11T02:40:28;4.18;;;2.03;;
72524;SDS011;60547;48.502;8.996;2022-07-11T02:42:53;3.92;;;1.83;;
72524;SDS011;60547;48.502;8.996;2022-07-11T02:45:19;4.28;;;2.03;;
72524;SDS011;60547;48.502;8.996;2022-07-11T02:47:44;4.90;;;1.90;;
72524;SDS011;60547;48.502;8.996;2022-07-11T02:50:11;3.92;;;1.85;;
72524;SDS011;60547;48.502;8.996;2022-07-11T02:52:37;4.32;;;2.10;;
72524;SDS011;60547;48.502;8.996;2022-07-11T02:55:06;3.03;;;1.90;;
72524;SDS011;60547;48.502;8.996;2022-07-11T02:57:33;4.88;;;2.00;;
72524;SDS011;60547;48.502;8.996;2022-07-11T03:00:00;4.40;;;2.20;;
72524;SDS011;60547;48.502;8.996;2022-07-11T03:02:27;3.75;;;1.98;;
72524;SDS011;60547;48.502;8.996;2022-07-11T03:04:52;3.55;;;2.00;;
72524;SDS011;60547;48.502;8.996;2022-07-11T03:07:18;4.55;;;2.10;;
72524;SDS011;60547;48.502;8.996;2022-07-11T03:09:43;6.25;;;2.25;;
72524;SDS011;60547;48.502;8.996;2022-07-11T03:12:09;4.47;;;2.35;;
72524;SDS011;60547;48.502;8.996;2022-07-11T03:14:34;3.55;;;2.30;;
72524;SDS011;60547;48.502;8.996;2022-07-11T03:16:59;4.70;;;2.15;;
72524;SDS011;60547;48.502;8.996;2022-07-11T03:19:28;4.10;;;2.13;;
72524;SDS011;60547;48.502;8.996;2022-07-11T03:21:53;4.35;;;2.40;;
72524;SDS011;60547;48.502;8.996;2022-07-11T03:24:18;4.38;;;2.20;;
72524;SDS011;60547;48.502;8.996;2022-07-11T03:26:44;3.80;;;2.08;;
72524;SDS011;60547;48.502;8.996;2022-07-11T03:29:09;3.95;;;2.00;;
72524;SDS011;60547;48.502;8.996;2022-07-11T03:31:35;4.93;;;2.20;;
72524;SDS011;60547;48.502;8.996;2022-07-11T03:34:00;3.70;;;2.30;;
72524;SDS011;60547;48.502;8.996;2022-07-11T03:36:26;3.60;;;1.90;;
72524;SDS011;60547;48.502;8.996;2022-07-11T03:38:51;3.78;;;2.10;;
72524;SDS011;60547;48.502;8.996;2022-07-11T03:41:17;5.10;;;2.30;;
72524;SDS011;60547;48.502;8.996;2022-07-11T03:43:42;4.82;;;2.63;;
72524;SDS011;60547;48.502;8.996;2022-07-11T03:46:08;4.53;;;2.33;;
72524;SDS011;60547;48.502;8.996;2022-07-11T03:48:33;4.28;;;2.08;;
72524;SDS011;60547;48.502;8.996;2022-07-11T03:50:59;3.85;;;2.10;;
72524;SDS011;60547;48.502;8.996;2022-07-11T03:53:24;3.92;;;2.40;;
72524;SDS011;60547;48.502;8.996;2022-07-11T03:55:50;5.68;;;2.00;;
72524;SDS011;60547;48.502;8.996;2022-07-11T03:58:15;4.28;;;2.20;;
72524;SDS011;60547;48.502;8.996;2022-07-11T04:00:41;3.58;;;2.00;;
72524;SDS011;60547;48.502;8.996;2022-07-11T04:03:06;4.82;;;1.95;;
72524;SDS011;60547;48.502;8.996;2022-07-11T04:05:32;4.07;;;2.03;;
72524;SDS011;60547;48.502;8.996;2022-07-11T04:07:58;3.55;;;2.15;;
72524;SDS011;60547;48.502;8.996;2022-07-11T04:10:24;3.60;;;1.98;;
72524;SDS011;60547;48.502;8.996;2022-07-11T04:12:49;3.67;;;2.33;;
72524;SDS011;60547;48.502;8.996;2022-07-11T04:15:15;6.45;;;2.20;;
72524;SDS011;60547;48.502;8.996;2022-07-11T04:17:40;5.10;;;2.20;;
72524;SDS011;60547;48.502;8.996;2022-07-11T04:20:06;5.65;;;2.20;;
72524;SDS011;60547;48.502;8.996;2022-07-11T04:22:32;3.60;;;2.20;;
72524;SDS011;60547;48.502;8.996;2022-07-11T04:24:57;5.88;;;2.45;;
72524;SDS011;60547;48.502;8.996;2022-07-11T04:27:23;3.45;;;2.00;;
72524;SDS011;60547;48.502;8.996;2022-07-11T04:29:50;3.88;;;2.25;;
72524;SDS011;60547;48.502;8.996;2022-07-11T04:32:16;3.60;;;1.85;;
72524;SDS011;60547;48.502;8.996;2022-07-11T04:34:41;6.03;;;2.30;;
72524;SDS011;60547;48.502;8.996;2022-07-11T04:37:07;3.95;;;2.20;;
72524;SDS011;60547;48.502;8.996;2022-07-11T04:39:32;4.82;;;2.25;;
72524;SDS011;60547;48.502;8.996;2022-07-11T04:41:58;3.78;;;2.22;;
72524;SDS011;60547;48.502;8.996;2022-07-11T04:44:26;3.17;;;2.08;;
72524;SDS011;60547;48.502;8.996;2022-07-11T04:46:52;4.68;;;2.22;;
72524;SDS011;60547;48.502;8.996;2022-07-11T04:49:17;4.07;;;2.35;;
72524;SDS011;60547;48.502;8.996;2022-07-11T04:51:43;4.40;;;2.05;;
72524;SDS011;60547;48.502;8.996;2022-07-11T04:54:09;3.90;;;2.05;;
72524;SDS011;60547;48.502;8.996;2022-07-11T04:56:35;3.25;;;2.15;;
72524;SDS011;60547;48.502;8.996;2022-07-11T04:59:00;3.97;;;2.00;;
72524;SDS011;60547;48.502;8.996;2022-07-11T05:01:26;3.58;;;2.10;;
72524;SDS011;60547;48.502;8.996;2022-07-11T05:03:54;5.10;;;2.30;;
72524;SDS011;60547;48.502;8.996;2022-07-11T05:06:19;4.78;;;2.33;;
72524;SDS011;60547;48.502;8.996;2022-07-11T05:08:45;3.65;;;2.30;;
72524;SDS011;60547;48.502;8.996;2022-07-11T05:11:11;3.65;;;1.98;;
72524;SDS011;60547;48.502;8.996;2022-07-11T05:13:36;3.80;;;1.90;;
72524;SDS011;60547;48.502;8.996;2022-07-11T05:16:02;4.38;;;2.22;;
72524;SDS011;60547;48.502;8.996;2022-07-11T05:18:28;5.25;;;2.25;;
72524;SDS011;60547;48.502;8.996;2022-07-11T05:20:54;4.95;;;2.20;;
72524;SDS011;60547;48.502;8.996;2022-07-11T05:23:19;4.78;;;2.10;;
72524;SDS011;60547;48.502;8.996;2022-07-11T05:25:45;4.03;;;2.13;;
72524;SDS011;60547;48.502;8.996;2022-07-11T05:28:10;5.10;;;2.42;;
72524;SDS011;60547;48.502;8.996;2022-07-11T05:30:35;3.90;;;2.00;;
72524;SDS011;60547;48.502;8.996;2022-07-11T05:33:01;4.07;;;2.00;;
72524;SDS011;60547;48.502;8.996;2022-07-11T05:35:26;3.42;;;1.90;;
72524;SDS011;60547;48.502;8.996;2022-07-11T05:37:52;4.53;;;2.28;;
72524;SDS011;60547;48.502;8.996;2022-07-11T05:40:17;6.65;;;2.40;;
72524;SDS011;60547;48.502;8.996;2022-07-11T05:42:43;4.38;;;2.00;;
72524;SDS011;60547;48.502;8.996;2022-07-11T05:45:09;4.20;;;1.92;;
72524;SDS011;60547;48.502;8.996;2022-07-11T05:47:34;3.42;;;1.83;;
72524;SDS011;60547;48.502;8.996;2022-07-11T05:50:00;3.85;;;2.15;;
72524;SDS011;60547;48.502;8.996;2022-07-11T05:52:25;5.60;;;2.40;;
72524;SDS011;60547;48.502;8.996;2022-07-11T05:54:51;5.10;;;2.17;;
72524;SDS011;60547;48.502;8.996;2022-07-11T05:57:16;4.20;;;2.05;;
72524;SDS011;60547;48.502;8.996;2022-07-11T05:59:42;3.78;;;1.95;;
72524;SDS011;60547;48.502;8.996;2022-07-11T06:02:07;9.98;;;2.30;;
72524;SDS011;60547;48.502;8.996;2022-07-11T06:04:33;4.32;;;2.10;;
72524;SDS011;60547;48.502;8.996;2022-07-11T06:06:59;4.35;;;2.20;;
72524;SDS011;60547;48.502;8.996;2022-07-11T06:09:25;3.90;;;2.08;;
72524;SDS011;60547;48.502;8.996;2022-07-11T06:11:50;4.05;;;1.90;;
72524;SDS011;60547;48.502;8.996;2022-07-11T06:14:16;4.45;;;2.10;;
72524;SDS011;60547;48.502;8.996;2022-07-11T06:16:42;4.57;;;2.05;;
72524;SDS011;60547;48.502;8.996;2022-07-11T06:19:07;3.90;;;2.28;;
72524;SDS011;60547;48.502;8.996;2022-07-11T06:21:32;5.68;;;2.30;;
72524;SDS011;60547;48.502;8.996;2022-07-11T06:23:58;4.22;;;2.22;;
72524;SDS011;60547;48.502;8.996;2022-07-11T06:26:24;4.10;;;2.00;;
72524;SDS011;60547;48.502;8.996;2022-07-11T06:28:49;3.38;;;1.92;;
72524;SDS011;60547;48.502;8.996;2022-07-11T06:31:15;3.88;;;1.90;;
72524;SDS011;60547;48.502;8.996;2022-07-11T06:33:41;4.60;;;2.10;;
72524;SDS011;60547;48.502;8.996;2022-07-11T06:36:07;5.68;;;2.17;;
72524;SDS011;60547;48.502;8.996;2022-07-11T06:38:33;6.57;;;2.45;;
72524;SDS011;60547;48.502;8.996;2022-07-11T06:40:59;6.25;;;2.08;;
72524;SDS011;60547;48.502;8.996;2022-07-11T06:43:25;4.22;;;2.03;;
72524;SDS011;60547;48.502;8.996;2022-07-11T06:45:51;5.00;;;2.30;;
72524;SDS011;60547;48.502;8.996;2022-07-11T06:48:16;5.20;;;2.45;;
72524;SDS011;60547;48.502;8.996;2022-07-11T06:50:43;4.30;;;2.40;;
72524;SDS011;60547;48.502;8.996;2022-07-11T06:53:08;3.88;;;2.30;;
72524;SDS011;60547;48.502;8.996;2022-07-11T06:55:34;4.10;;;2.10;;
72524;SDS011;60547;48.502;8.996;2022-07-11T06:58:00;4.00;;;2.10;;
72524;SDS011;60547;48.502;8.996;2022-07-11T07:00:26;4.68;;;2.50;;
72524;SDS011;60547;48.502;8.996;2022-07-11T07:02:55;4.72;;;2.70;;
72524;SDS011;60547;48.502;8.996;2022-07-11T07:05:22;4.88;;;2.70;;
72524;SDS011;60547;48.502;8.996;2022-07-11T07:07:53;5.05;;;2.67;;
72524;SDS011;60547;48.502;8.996;2022-07-11T07:10:19;3.55;;;2.10;;
72524;SDS011;60547;48.502;8.996;2022-07-11T07:12:44;4.18;;;2.40;;
72524;SDS011;60547;48.502;8.996;2022-07-11T07:15:13;5.72;;;2.45;;
72524;SDS011;60547;48.502;8.996;2022-07-11T07:17:38;7.13;;;2.70;;
72524;SDS011;60547;48.502;8.996;2022-07-11T07:20:04;5.25;;;2.30;;
72524;SDS011;60547;48.502;8.996;2022-07-11T07:22:33;6.78;;;2.38;;
72524;SDS011;60547;48.502;8.996;2022-07-11T07:24:59;5.38;;;2.53;;
72524;SDS011;60547;48.502;8.996;2022-07-11T07:27:24;6.22;;;2.80;;
72524;SDS011;60547;48.502;8.996;2022-07-11T07:29:50;5.47;;;2.63;;
72524;SDS011;60547;48.502;8.996;2022-07-11T07:32:15;3.78;;;1.90;;
72524;SDS011;60547;48.502;8.996;2022-07-11T07:34:41;5.55;;;2.45;;
72524;SDS011;60547;48.502;8.996;2022-07-11T07:37:06;4.30;;;2.45;;
72524;SDS011;60547;48.502;8.996;2022-07-11T07:39:31;4.63;;;2.10;;
72524;SDS011;60547;48.502;8.996;2022-07-11T07:41:57;4.32;;;2.50;;
72524;SDS011;60547;48.502;8.996;2022-07-11T07:44:22;4.53;;;2.75;;
72524;SDS011;60547;48.502;8.996;2022-07-11T07:46:48;4.57;;;2.40;;
72524;SDS011;60547;48.502;8.996;2022-07-11T07:49:13;5.50;;;2.40;;
72524;SDS011;60547;48.502;8.996;2022-07-11T07:51:39;3.85;;;2.58;;
72524;SDS011;60547;48.502;8.996;2022-07-11T07:54:04;5.68;;;2.85;;
72524;SDS011;60547;48.502;8.996;2022-07-11T07:56:29;4.57;;;2.38;;
72524;SDS011;60547;48.502;8.996;2022-07-11T07:58:55;4.88;;;2.50;;
72524;SDS011;60547;48.502;8.996;2022-07-11T08:01:21;5.68;;;2.10;;
72524;SDS011;60547;48.502;8.996;2022-07-11T08:06:33;6.80;;;2.42;;
72524;SDS011;60547;48.502;8.996;2022-07-11T08:08:59;7.00;;;2.22;;
72524;SDS011;60547;48.502;8.996;2022-07-11T08:11:25;6.40;;;2.38;;
72524;SDS011;60547;48.502;8.996;2022-07-11T08:13:51;3.75;;;1.83;;
72524;SDS011;60547;48.502;8.996;2022-07-11T08:16:17;4.75;;;1.98;;
72524;SDS011;60547;48.502;8.996;2022-07-11T08:18:42;6.72;;;2.08;;
72524;SDS011;60547;48.502;8.996;2022-07-11T08:21:08;3.30;;;1.90;;
72524;SDS011;60547;48.502;8.996;2022-07-11T08:23:34;3.15;;;1.75;;
72524;SDS011;60547;48.502;8.996;2022-07-11T08:26:00;3.20;;;1.92;;
72524;SDS011;60547;48.502;8.996;2022-07-11T08:28:26;4.40;;;2.10;;
72524;SDS011;60547;48.502;8.996;2022-07-11T08:30:51;4.30;;;2.10;;
72524;SDS011;60547;48.502;8.996;2022-07-11T08:33:17;3.45;;;2.00;;
72524;SDS011;60547;48.502;8.996;2022-07-11T08:35:43;4.88;;;1.80;;
72524;SDS011;60547;48.502;8.996;2022-07-11T08:38:08;2.95;;;1.48;;
72524;SDS011;60547;48.502;8.996;2022-07-11T08:40:34;4.03;;;1.83;;
72524;SDS011;60547;48.502;8.996;2022-07-11T08:43:00;3.50;;;1.60;;
72524;SDS011;60547;48.502;8.996;2022-07-11T08:45:30;3.08;;;1.77;;
72524;SDS011;60547;48.502;8.996;2022-07-11T08:47:56;4.47;;;1.70;;
72524;SDS011;60547;48.502;8.996;2022-07-11T08:50:23;3.65;;;1.90;;
72524;SDS011;60547;48.502;8.996;2022-07-11T08:52:51;3.35;;;1.55;;
72524;SDS011;60547;48.502;8.996;2022-07-11T08:55:18;3.33;;;1.38;;
72524;SDS011;60547;48.502;8.996;2022-07-11T08:57:45;4.20;;;1.77;;
72524;SDS011;60547;48.502;8.996;2022-07-11T09:00:12;3.10;;;1.23;;
72524;SDS011;60547;48.502;8.996;2022-07-11T09:02:38;2.40;;;1.33;;
72524;SDS011;60547;48.502;8.996;2022-07-11T09:05:07;2.83;;;1.30;;
72524;SDS011;60547;48.502;8.996;2022-07-11T09:07:33;2.42;;;1.25;;
72524;SDS011;60547;48.502;8.996;2022-07-11T09:09:59;2.05;;;1.17;;
72524;SDS011;60547;48.502;8.996;2022-07-11T09:12:25;2.08;;;1.20;;
72524;SDS011;60547;48.502;8.996;2022-07-11T09:14:50;3.28;;;1.40;;
72524;SDS011;60547;48.502;8.996;2022-07-11T09:17:28;2.50;;;1.27;;
72524;SDS011;60547;48.502;8.996;2022-07-11T09:19:57;3.22;;;1.30;;
72524;SDS011;60547;48.502;8.996;2022-07-11T09:22:23;2.67;;;1.10;;
72524;SDS011;60547;48.502;8.996;2022-07-11T09:25:08;2.45;;;1.10;;
72524;SDS011;60547;48.502;8.996;2022-07-11T09:30:27;1.90;;;1.05;;
72524;SDS011;60547;48.502;8.996;2022-07-11T09:35:27;2.00;;;1.00;;
72524;SDS011;60547;48.502;8.996;2022-07-11T09:37:54;2.38;;;0.95;;
72524;SDS011;60547;48.502;8.996;2022-07-11T09:40:20;1.50;;;0.80;;
72524;SDS011;60547;48.502;8.996;2022-07-11T09:42:54;2.10;;;0.80;;
72524;SDS011;60547;48.502;8.996;2022-07-11T09:45:21;1.33;;;0.80;;
72524;SDS011;60547;48.502;8.996;2022-07-11T09:47:50;2.10;;;1.05;;
72524;SDS011;60547;48.502;8.996;2022-07-11T09:50:24;1.92;;;1.10;;
72524;SDS011;60547;48.502;8.996;2022-07-11T09:55:25;2.08;;;0.73;;
72524;SDS011;60547;48.502;8.996;2022-07-11T09:57:52;1.65;;;1.00;;
72524;SDS011;60547;48.502;8.996;2022-07-11T10:00:18;1.95;;;0.93;;
72524;SDS011;60547;48.502;8.996;2022-07-11T10:02:43;1.65;;;0.85;;
72524;SDS011;60547;48.502;8.996;2022-07-11T10:05:10;1.98;;;0.90;;
72524;SDS011;60547;48.502;8.996;2022-07-11T10:07:35;0.88;;;0.70;;
72524;SDS011;60547;48.502;8.996;2022-07-11T10:10:01;1.92;;;0.90;;
72524;SDS011;60547;48.502;8.996;2022-07-11T10:12:28;2.30;;;1.00;;
72524;SDS011;60547;48.502;8.996;2022-07-11T10:14:57;1.55;;;0.88;;
72524;SDS011;60547;48.502;8.996;2022-07-11T10:17:28;1.80;;;0.90;;
72524;SDS011;60547;48.502;8.996;2022-07-11T10:20:09;1.55;;;0.80;;
72524;SDS011;60547;48.502;8.996;2022-07-11T10:22:58;1.40;;;0.80;;
72524;SDS011;60547;48.502;8.996;2022-07-11T10:25:53;2.42;;;0.80;;
72524;SDS011;60547;48.502;8.996;2022-07-11T10:28:27;1.77;;;0.80;;
72524;SDS011;60547;48.502;8.996;2022-07-11T10:30:58;1.23;;;0.85;;
72524;SDS011;60547;48.502;8.996;2022-07-11T10:33:26;2.15;;;0.82;;
72524;SDS011;60547;48.502;8.996;2022-07-11T10:35:53;2.17;;;0.90;;
72524;SDS011;60547;48.502;8.996;2022-07-11T10:38:19;2.08;;;0.80;;
72524;SDS011;60547;48.502;8.996;2022-07-11T10:46:03;3.05;;;1.60;;
72524;SDS011;60547;48.502;8.996;2022-07-11T10:48:51;1.13;;;0.70;;
72524;SDS011;60547;48.502;8.996;2022-07-11T10:54:19;1.50;;;0.90;;
72524;SDS011;60547;48.502;8.996;2022-07-11T11:02:20;1.50;;;0.80;;
72524;SDS011;60547;48.502;8.996;2022-07-11T11:10:04;1.83;;;1.00;;
72524;SDS011;60547;48.502;8.996;2022-07-11T11:20:47;2.13;;;0.90;;
72524;SDS011;60547;48.502;8.996;2022-07-11T11:31:23;2.83;;;1.05;;
72524;SDS011;60547;48.502;8.996;2022-07-11T11:33:50;2.60;;;1.00;;
72524;SDS011;60547;48.502;8.996;2022-07-11T11:36:17;3.33;;;1.00;;
72524;SDS011;60547;48.502;8.996;2022-07-11T11:38:46;2.38;;;1.10;;
72524;SDS011;60547;48.502;8.996;2022-07-11T11:41:25;3.53;;;1.10;;
72524;SDS011;60547;48.502;8.996;2022-07-11T11:43:52;1.50;;;0.90;;
72524;SDS011;60547;48.502;8.996;2022-07-11T11:46:18;2.75;;;1.08;;
72524;SDS011;60547;48.502;8.996;2022-07-11T11:51:14;2.28;;;1.00;;
72524;SDS011;60547;48.502;8.996;2022-07-11T11:53:42;2.10;;;0.95;;
72524;SDS011;60547;48.502;8.996;2022-07-11T11:56:22;3.20;;;1.10;;
72524;SDS011;60547;48.502;8.996;2022-07-11T11:58:49;2.97;;;1.00;;
72524;SDS011;60547;48.502;8.996;2022-07-11T12:01:20;2.42;;;1.13;;
72524;SDS011;60547;48.502;8.996;2022-07-11T12:04:00;1.98;;;1.00;;
72524;SDS011;60547;48.502;8.996;2022-07-11T12:06:31;2.03;;;1.00;;
72524;SDS011;60547;48.502;8.996;2022-07-11T12:09:06;2.53;;;1.00;;
72524;SDS011;60547;48.502;8.996;2022-07-11T12:11:40;2.80;;;0.90;;
72524;SDS011;60547;48.502;8.996;2022-07-11T12:14:08;2.47;;;1.35;;
72524;SDS011;60547;48.502;8.996;2022-07-11T12:16:38;1.52;;;0.95;;
72524;SDS011;60547;48.502;8.996;2022-07-11T12:19:09;1.80;;;0.90;;
72524;SDS011;60547;48.502;8.996;2022-07-11T12:21:38;3.42;;;1.00;;
72524;SDS011;60547;48.502;8.996;2022-07-11T12:24:06;2.22;;;0.90;;
72524;SDS011;60547;48.502;8.996;2022-07-11T12:26:35;1.75;;;1.08;;
72524;SDS011;60547;48.502;8.996;2022-07-11T12:29:03;1.67;;;0.90;;
72524;SDS011;60547;48.502;8.996;2022-07-11T12:34:11;2.63;;;1.10;;
72524;SDS011;60547;48.502;8.996;2022-07-11T12:36:38;1.85;;;0.90;;
72524;SDS011;60547;48.502;8.996;2022-07-11T12:39:04;2.38;;;1.15;;
72524;SDS011;60547;48.502;8.996;2022-07-11T12:41:30;2.58;;;1.10;;
72524;SDS011;60547;48.502;8.996;2022-07-11T12:43:56;2.55;;;1.20;;
72524;SDS011;60547;48.502;8.996;2022-07-11T12:46:40;1.25;;;0.80;;
72524;SDS011;60547;48.502;8.996;2022-07-11T12:49:08;1.70;;;1.00;;
72524;SDS011;60547;48.502;8.996;2022-07-11T12:51:36;2.13;;;1.00;;
72524;SDS011;60547;48.502;8.996;2022-07-11T12:54:09;1.38;;;0.93;;
72524;SDS011;60547;48.502;8.996;2022-07-11T12:56:36;1.90;;;0.95;;
72524;SDS011;60547;48.502;8.996;2022-07-11T12:59:03;2.30;;;1.10;;
72524;SDS011;60547;48.502;8.996;2022-07-11T13:01:29;1.88;;;1.05;;
72524;SDS011;60547;48.502;8.996;2022-07-11T13:03:56;2.28;;;1.20;;
72524;SDS011;60547;48.502;8.996;2022-07-11T13:06:21;1.27;;;0.75;;
72524;SDS011;60547;48.502;8.996;2022-07-11T13:09:06;2.42;;;1.20;;
72524;SDS011;60547;48.502;8.996;2022-07-11T13:11:32;1.80;;;1.00;;
72524;SDS011;60547;48.502;8.996;2022-07-11T13:13:57;3.05;;;1.17;;
72524;SDS011;60547;48.502;8.996;2022-07-11T13:16:23;2.60;;;1.00;;
72524;SDS011;60547;48.502;8.996;2022-07-11T13:18:49;2.55;;;1.05;;
72524;SDS011;60547;48.502;8.996;2022-07-11T13:21:15;2.30;;;1.10;;
72524;SDS011;60547;48.502;8.996;2022-07-11T13:23:41;1.90;;;1.10;;
72524;SDS011;60547;48.502;8.996;2022-07-11T13:26:06;2.33;;;1.00;;
72524;SDS011;60547;48.502;8.996;2022-07-11T13:28:33;2.53;;;1.00;;
72524;SDS011;60547;48.502;8.996;2022-07-11T13:31:01;3.67;;;1.10;;
72524;SDS011;60547;48.502;8.996;2022-07-11T13:33:33;3.00;;;1.20;;
72524;SDS011;60547;48.502;8.996;2022-07-11T13:35:58;2.85;;;1.30;;
72524;SDS011;60547;48.502;8.996;2022-07-11T13:38:24;2.90;;;1.10;;
72524;SDS011;60547;48.502;8.996;2022-07-11T13:40:50;5.15;;;1.23;;
72524;SDS011;60547;48.502;8.996;2022-07-11T13:43:16;2.42;;;1.10;;
72524;SDS011;60547;48.502;8.996;2022-07-11T13:45:42;2.25;;;1.10;;
72524;SDS011;60547;48.502;8.996;2022-07-11T13:48:12;2.00;;;1.15;;
72524;SDS011;60547;48.502;8.996;2022-07-11T13:50:39;1.85;;;1.00;;
72524;SDS011;60547;48.502;8.996;2022-07-11T13:53:05;2.53;;;1.00;;
72524;SDS011;60547;48.502;8.996;2022-07-11T13:55:30;2.75;;;1.10;;
72524;SDS011;60547;48.502;8.996;2022-07-11T13:57:57;2.40;;;1.10;;
72524;SDS011;60547;48.502;8.996;2022-07-11T14:00:24;2.95;;;1.00;;
72524;SDS011;60547;48.502;8.996;2022-07-11T14:02:50;2.35;;;1.20;;
72524;SDS011;60547;48.502;8.996;2022-07-11T14:05:16;6.43;;;1.55;;
72524;SDS011;60547;48.502;8.996;2022-07-11T14:07:43;3.30;;;1.10;;
72524;SDS011;60547;48.502;8.996;2022-07-11T14:10:09;1.95;;;1.00;;
72524;SDS011;60547;48.502;8.996;2022-07-11T14:12:35;2.25;;;1.10;;
72524;SDS011;60547;48.502;8.996;2022-07-11T14:15:01;2.90;;;1.00;;
72524;SDS011;60547;48.502;8.996;2022-07-11T14:17:27;2.60;;;1.20;;
72524;SDS011;60547;48.502;8.996;2022-07-11T14:19:53;2.28;;;1.08;;
72524;SDS011;60547;48.502;8.996;2022-07-11T14:22:19;2.10;;;1.00;;
72524;SDS011;60547;48.502;8.996;2022-07-11T14:24:45;2.10;;;1.00;;
72524;SDS011;60547;48.502;8.996;2022-07-11T14:27:11;3.08;;;1.20;;
72524;SDS011;60547;48.502;8.996;2022-07-11T14:29:36;3.10;;;1.27;;
72524;SDS011;60547;48.502;8.996;2022-07-11T14:32:02;3.13;;;1.20;;
72524;SDS011;60547;48.502;8.996;2022-07-11T14:34:27;2.40;;;1.20;;
72524;SDS011;60547;48.502;8.996;2022-07-11T14:36:54;2.78;;;1.15;;
72524;SDS011;60547;48.502;8.996;2022-07-11T14:39:20;2.63;;;1.27;;
72524;SDS011;60547;48.502;8.996;2022-07-11T14:41:46;3.13;;;1.40;;
72524;SDS011;60547;48.502;8.996;2022-07-11T14:44:11;3.28;;;1.50;;
72524;SDS011;60547;48.502;8.996;2022-07-11T14:46:37;2.47;;;1.20;;
72524;SDS011;60547;48.502;8.996;2022-07-11T14:49:03;4.28;;;1.20;;
72524;SDS011;60547;48.502;8.996;2022-07-11T14:51:32;2.42;;;1.15;;
72524;SDS011;60547;48.502;8.996;2022-07-11T14:53:57;2.45;;;1.00;;
72524;SDS011;60547;48.502;8.996;2022-07-11T14:56:23;2.50;;;1.20;;
72524;SDS011;60547;48.502;8.996;2022-07-11T14:58:49;4.03;;;1.20;;
72524;SDS011;60547;48.502;8.996;2022-07-11T15:01:14;3.15;;;1.25;;
72524;SDS011;60547;48.502;8.996;2022-07-11T15:03:40;1.75;;;1.13;;
72524;SDS011;60547;48.502;8.996;2022-07-11T15:06:15;3.13;;;1.38;;
72524;SDS011;60547;48.502;8.996;2022-07-11T15:08:41;2.50;;;1.30;;
72524;SDS011;60547;48.502;8.996;2022-07-11T15:11:26;2.70;;;1.20;;
72524;SDS011;60547;48.502;8.996;2022-07-11T15:14:10;2.70;;;1.60;;
72524;SDS011;60547;48.502;8.996;2022-07-11T15:16:37;4.85;;;1.35;;
72524;SDS011;60547;48.502;8.996;2022-07-11T15:19:03;2.80;;;1.40;;
72524;SDS011;60547;48.502;8.996;2022-07-11T15:21:31;3.40;;;1.40;;
72524;SDS011;60547;48.502;8.996;2022-07-11T15:23:57;3.67;;;1.50;;
72524;SDS011;60547;48.502;8.996;2022-07-11T15:26:22;3.85;;;1.30;;
72524;SDS011;60547;48.502;8.996;2022-07-11T15:28:49;2.35;;;1.30;;
72524;SDS011;60547;48.502;8.996;2022-07-11T15:31:14;4.18;;;1.40;;
72524;SDS011;60547;48.502;8.996;2022-07-11T15:33:41;3.42;;;1.35;;
72524;SDS011;60547;48.502;8.996;2022-07-11T15:36:10;6.38;;;1.60;;
72524;SDS011;60547;48.502;8.996;2022-07-11T15:38:40;2.47;;;1.25;;